Time;durP1;ratioP1;P1;durP2;ratioP2;P2;SDS_P1;SDS_P2;PMS_P1;PMS_P2;Temp;Humidity;BMP_temperature;BMP_pressure;BME280_temperature;BME280_humidity;BME280_pressure;Samples;Min_cycle;Max_cycle;Signal;HPM_P1;HPM_P2
2022/11/03 00:02:01;;;;;;;9.93;2.17;;;;;;;18.58;50.53;101396.19;4838001;29;20602;-50
2022/11/03 00:04:28;;;;;;;4.90;2.13;;;;;;;18.57;50.63;101394.47;4850603;29;20054;-49
2022/11/03 00:06:55;;;;;;;8.43;2.42;;;;;;;18.59;50.37;101391.66;4840368;29;20861;-51
2022/11/03 00:09:22;;;;;;;7.88;2.75;;;;;;;18.58;50.49;101387.31;4847937;29;20049;-50
2022/11/03 00:11:50;;;;;;;8.85;1.92;;;;;;;18.56;50.91;101390.09;4848447;29;20077;-52
2022/11/03 00:14:17;;;;;;;4.93;1.77;;;;;;;18.57;50.72;101381.06;4847926;29;20461;-52
2022/11/03 00:16:44;;;;;;;8.57;2.63;;;;;;;18.57;50.48;101380.22;4843488;29;20050;-49
2022/11/03 00:19:15;;;;;;;9.45;2.13;;;;;;;18.56;50.69;101376.69;4843562;29;20057;-50
2022/11/03 00:21:43;;;;;;;7.72;1.98;;;;;;;18.56;50.76;101365.09;4842184;29;20057;-52
2022/11/03 00:24:10;;;;;;;6.53;2.08;;;;;;;18.54;50.42;101356.38;4844260;29;20060;-51
2022/11/03 00:26:37;;;;;;;10.48;2.60;;;;;;;18.54;50.93;101349.16;4847287;29;20050;-54
2022/11/03 00:29:09;;;;;;;9.90;2.13;;;;;;;18.53;50.30;101354.66;4842917;29;20053;-51
2022/11/03 00:31:38;;;;;;;7.38;2.08;;;;;;;18.53;50.72;101357.34;4845343;29;20068;-51
2022/11/03 00:34:06;;;;;;;7.60;2.15;;;;;;;18.52;50.28;101351.13;4846438;29;20434;-53
2022/11/03 00:36:36;;;;;;;6.28;1.98;;;;;;;18.52;50.60;101350.28;4843390;29;20065;-51
2022/11/03 00:39:03;;;;;;;5.45;1.85;;;;;;;18.52;51.06;101358.34;4845962;29;20454;-53
2022/11/03 00:41:30;;;;;;;4.28;1.98;;;;;;;18.51;50.50;101354.81;4842763;29;20046;-52
2022/11/03 00:43:57;;;;;;;9.63;2.50;;;;;;;18.48;50.50;101355.09;4844197;29;20359;-49
2022/11/03 00:46:24;;;;;;;8.52;2.40;;;;;;;18.49;50.39;101346.03;4841267;29;20061;-52
2022/11/03 00:48:51;;;;;;;5.13;2.05;;;;;;;18.49;50.74;101349.59;4841637;29;20054;-51
2022/11/03 00:51:26;;;;;;;8.82;2.60;;;;;;;18.49;50.61;101346.03;4842166;29;20049;-51
2022/11/03 00:53:54;;;;;;;5.65;2.47;;;;;;;18.50;50.44;101353.13;4838449;29;20430;-53
2022/11/03 00:56:24;;;;;;;7.97;2.28;;;;;;;18.50;50.80;101353.13;4843933;29;20060;-50
2022/11/03 00:58:51;;;;;;;6.82;2.30;;;;;;;18.47;50.84;101354.25;4844670;29;20050;-51
2022/11/03 01:01:19;;;;;;;5.63;1.83;;;;;;;18.47;50.64;101339.97;4845263;29;20055;-49
2022/11/03 01:06:49;;;;;;;9.70;1.80;;;;;;;18.46;50.96;101336.44;4843566;29;20065;-52
2022/11/03 01:09:24;;;;;;;7.47;2.22;;;;;;;18.46;50.56;101336.44;4848382;29;20093;-50
2022/11/03 01:12:05;;;;;;;7.40;1.95;;;;;;;18.46;50.90;101330.25;4844584;29;20084;-51
2022/11/03 01:14:34;;;;;;;7.30;2.03;;;;;;;18.47;50.24;101339.97;4843492;29;20046;-52
2022/11/03 01:17:03;;;;;;;6.63;2.13;;;;;;;18.45;50.27;101325.84;4840257;29;20049;-50
2022/11/03 01:19:29;;;;;;;4.95;2.08;;;;;;;18.44;50.29;101322.31;4843424;29;20052;-50
2022/11/03 01:21:56;;;;;;;7.20;2.15;;;;;;;18.43;50.78;101322.47;4843921;29;20072;-50
2022/11/03 01:24:23;;;;;;;6.13;1.95;;;;;;;18.43;50.59;101311.72;4842946;29;20063;-52
2022/11/03 01:26:49;;;;;;;8.30;2.25;;;;;;;18.42;50.14;101307.38;4842906;29;20053;-53
2022/11/03 01:29:16;;;;;;;7.75;2.20;;;;;;;18.43;50.45;101311.72;4842026;29;20049;-52
2022/11/03 01:31:43;;;;;;;6.10;2.15;;;;;;;18.42;50.83;101310.06;4842739;29;20057;-49
2022/11/03 01:34:17;;;;;;;5.20;1.70;;;;;;;18.41;50.15;101302.97;4845705;29;20054;-50
2022/11/03 01:36:44;;;;;;;5.32;2.10;;;;;;;18.42;50.42;101296.63;4844187;29;20387;-51
2022/11/03 01:39:13;;;;;;;8.20;2.42;;;;;;;18.40;50.23;101299.44;4840048;29;20128;-49
2022/11/03 01:41:41;;;;;;;5.20;1.90;;;;;;;18.39;50.44;101288.84;4844323;29;20049;-52
2022/11/03 01:44:08;;;;;;;10.25;2.30;;;;;;;18.39;50.27;101284.34;4842696;29;20057;-52
2022/11/03 01:46:43;;;;;;;6.28;2.28;;;;;;;18.39;50.46;101288.84;4844827;29;20077;-52
2022/11/03 01:49:34;;;;;;;6.88;2.10;;;;;;;18.37;50.28;101278.28;4841983;29;20053;-50
2022/11/03 01:52:15;;;;;;;7.45;2.00;;;;;;;18.38;50.20;101276.44;4844625;29;20064;-50
2022/11/03 01:54:44;;;;;;;7.10;2.33;;;;;;;18.38;50.58;101279.13;4842393;29;20063;-51
2022/11/03 01:57:17;;;;;;;6.68;1.95;;;;;;;18.37;50.52;101264.00;4842307;29;20054;-49
2022/11/03 01:59:44;;;;;;;5.03;2.22;;;;;;;18.37;50.63;101266.69;4841302;29;20068;-49
2022/11/03 02:02:11;;;;;;;6.13;1.85;;;;;;;18.36;50.53;101273.88;4844954;29;20056;-50
2022/11/03 02:04:38;;;;;;;8.60;2.25;;;;;;;18.36;50.56;101265.00;4843100;29;20066;-50
2022/11/03 02:07:16;;;;;;;6.90;1.88;;;;;;;18.36;50.36;101263.16;4844379;29;20053;-52
2022/11/03 02:09:42;;;;;;;8.40;2.15;;;;;;;18.36;50.56;101259.63;4840443;29;20054;-49
2022/11/03 02:12:10;;;;;;;6.18;1.73;;;;;;;18.36;50.58;101256.94;4837890;29;20055;-52
2022/11/03 02:15:02;;;;;;;8.82;2.42;;;;;;;18.33;50.49;101252.72;4839246;29;20049;-50
2022/11/03 02:17:31;;;;;;;6.72;2.03;;;;;;;18.34;50.55;101249.03;4843679;29;20057;-53
2022/11/03 02:20:09;;;;;;;6.57;2.00;;;;;;;18.34;50.64;101248.22;4842419;29;20064;-48
2022/11/03 02:22:40;;;;;;;8.43;1.70;;;;;;;18.34;50.58;101248.22;4843738;29;20435;-52
2022/11/03 02:25:28;;;;;;;7.18;2.28;;;;;;;18.33;50.61;101250.03;4842602;29;20054;-52
2022/11/03 02:27:55;;;;;;;9.32;2.00;;;;;;;18.34;50.86;101242.84;4844244;29;20566;-50
2022/11/03 02:30:21;;;;;;;5.68;1.80;;;;;;;18.34;50.29;101238.31;4843140;29;20054;-52
2022/11/03 02:33:27;;;;;;;6.80;1.40;;;;;;;18.32;50.57;101221.50;4838896;29;20057;-49
2022/11/03 02:36:01;;;;;;;4.65;1.63;;;;;;;18.33;50.69;101225.03;4836167;29;20571;-53
2022/11/03 02:38:31;;;;;;;5.95;1.55;;;;;;;18.33;50.83;101214.28;4843769;29;20050;-52
2022/11/03 02:41:02;;;;;;;7.75;2.20;;;;;;;18.32;50.71;101202.72;4844419;29;20494;-51
2022/11/03 02:43:29;;;;;;;5.82;2.00;;;;;;;18.31;50.30;101195.66;4840933;29;20391;-51
2022/11/03 02:45:55;;;;;;;4.68;2.00;;;;;;;18.32;50.39;101196.50;4841501;29;20049;-51
2022/11/03 02:48:22;;;;;;;6.35;1.90;;;;;;;18.33;50.69;101187.44;4838482;29;20422;-49
2022/11/03 02:50:48;;;;;;;6.82;2.20;;;;;;;18.32;50.60;101185.78;4845621;29;20057;-49
2022/11/03 02:53:15;;;;;;;7.28;2.28;;;;;;;18.32;50.90;101180.41;4841865;29;20060;-50
2022/11/03 02:55:54;;;;;;;6.53;2.15;;;;;;;18.31;51.12;101178.72;4845626;29;20056;-51
2022/11/03 02:58:30;;;;;;;7.32;2.08;;;;;;;18.30;50.70;101179.72;4844274;29;20042;-49
2022/11/03 03:01:18;;;;;;;8.10;2.63;;;;;;;18.30;50.60;101177.03;4841129;29;20053;-50
2022/11/03 03:04:08;;;;;;;7.47;2.20;;;;;;;18.30;50.97;101166.31;4840275;29;20400;-49
2022/11/03 03:06:56;;;;;;;5.72;1.77;;;;;;;18.29;50.92;101172.63;4841571;29;20054;-49
2022/11/03 03:10:01;;;;;;;5.75;1.85;;;;;;;18.28;50.69;101166.44;4842188;29;20053;-50
2022/11/03 03:12:31;;;;;;;8.35;2.25;;;;;;;18.30;50.88;101166.31;4822743;29;20061;-51
2022/11/03 03:14:59;;;;;;;6.15;1.83;;;;;;;18.30;50.66;101160.94;4842866;29;20053;-51
2022/11/03 03:17:32;;;;;;;5.68;2.20;;;;;;;18.28;50.57;101154.84;4838970;29;20375;-52
2022/11/03 03:20:04;;;;;;;7.00;2.20;;;;;;;18.30;50.86;101158.25;4838321;29;20049;-50
2022/11/03 03:22:51;;;;;;;6.72;2.50;;;;;;;18.28;50.58;101142.28;4843644;29;20049;-49
2022/11/03 03:25:26;;;;;;;5.43;1.80;;;;;;;18.28;50.89;101149.50;4839526;29;20050;-49
2022/11/03 03:27:59;;;;;;;7.35;2.33;;;;;;;18.27;50.75;101126.34;4841957;29;20057;-49
2022/11/03 03:30:28;;;;;;;9.35;1.80;;;;;;;18.27;50.67;101137.06;4842426;29;20342;-52
2022/11/03 03:32:58;;;;;;;7.65;2.22;;;;;;;18.25;51.07;101124.66;4843153;29;20110;-53
2022/11/03 03:35:29;;;;;;;6.45;1.88;;;;;;;18.26;50.52;101125.50;4840768;29;20057;-51
2022/11/03 03:38:02;;;;;;;14.05;2.25;;;;;;;18.25;50.96;101119.28;4840475;29;20084;-50
2022/11/03 03:40:31;;;;;;;;;;;;;;;18.25;50.92;101121.09;4844244;29;20054;-49
2022/11/03 03:43:00;;;;;;;6.50;2.28;;;;;;;18.29;50.77;101121.66;4841787;29;19993;-53
2022/11/03 03:45:29;;;;;;;5.43;1.92;;;;;;;18.28;50.78;101119.97;4841357;29;20058;-51
2022/11/03 03:47:56;;;;;;;7.82;2.25;;;;;;;18.27;50.54;101110.25;4840670;29;20612;-52
2022/11/03 03:50:26;;;;;;;6.40;2.35;;;;;;;18.26;50.88;101109.41;4836923;29;20129;-51
2022/11/03 03:53:01;;;;;;;9.00;1.92;;;;;;;18.25;51.05;101121.09;4844593;29;20066;-50
2022/11/03 03:55:39;;;;;;;5.15;1.70;;;;;;;18.24;50.83;101114.91;4846081;29;20045;-50
2022/11/03 03:58:06;;;;;;;8.18;1.77;;;;;;;18.23;50.61;101105.16;4847237;29;20071;-50
2022/11/03 04:00:33;;;;;;;5.38;2.13;;;;;;;18.23;50.90;101110.53;4843355;29;20466;-53
2022/11/03 04:03:00;;;;;;;7.95;2.47;;;;;;;18.22;51.23;101111.53;4841222;29;20069;-51
2022/11/03 04:05:26;;;;;;;7.22;1.60;;;;;;;18.23;51.30;101107.00;4845331;29;20091;-50
2022/11/03 04:07:53;;;;;;;7.78;1.83;;;;;;;18.23;51.11;101101.66;4844587;29;20045;-52
2022/11/03 04:10:21;;;;;;;7.30;2.00;;;;;;;18.22;51.18;101090.06;4851371;29;20859;-53
2022/11/03 04:22:15;;;;;;;5.75;2.25;;;;;;;18.22;51.10;101095.44;4847206;29;20442;-53
2022/11/03 04:23:59;;;;;;;4.68;1.55;;;;;;;18.22;51.23;101084.69;4844830;29;20057;-50
2022/11/03 04:26:27;;;;;;;5.50;1.70;;;;;;;18.23;50.87;101085.53;4841560;29;20061;-51
2022/11/03 04:28:56;;;;;;;4.13;1.65;;;;;;;18.22;51.16;101073.13;4841862;29;20061;-53
2022/11/03 04:31:22;;;;;;;8.60;1.75;;;;;;;18.23;50.92;101080.19;4842510;29;20062;-51
2022/11/03 04:33:49;;;;;;;4.88;1.77;;;;;;;18.23;51.15;101077.50;4840014;29;20065;-50
2022/11/03 04:36:21;;;;;;;6.82;1.95;;;;;;;18.22;51.14;101071.28;4844034;29;20050;-49
2022/11/03 04:38:49;;;;;;;6.43;2.10;;;;;;;18.22;51.26;101065.94;4838013;29;20050;-50
2022/11/03 04:41:20;;;;;;;6.50;2.13;;;;;;;18.22;50.97;101057.03;4847987;29;20073;-50
2022/11/03 04:43:48;;;;;;;5.75;1.67;;;;;;;18.21;51.30;101066.94;4842728;29;20065;-49
2022/11/03 04:46:23;;;;;;;9.57;3.00;;;;;;;18.20;50.96;101070.56;4847435;29;20583;-51
2022/11/03 04:48:52;;;;;;;6.90;1.85;;;;;;;18.21;51.32;101064.25;4841302;29;20061;-52
2022/11/03 04:51:23;;;;;;;4.07;1.45;;;;;;;18.20;51.19;101053.63;4846527;29;20054;-50
2022/11/03 04:53:53;;;;;;;6.78;1.65;;;;;;;18.21;51.20;101050.81;4843580;29;20058;-51
2022/11/03 04:56:23;;;;;;;7.60;1.85;;;;;;;18.21;51.31;101047.28;4842949;29;20470;-50
2022/11/03 04:58:51;;;;;;;4.78;1.33;;;;;;;18.22;50.90;101051.66;4839510;29;20054;-50
2022/11/03 05:01:22;;;;;;;7.03;2.00;;;;;;;18.20;50.97;101043.75;4841067;29;20057;-50
2022/11/03 05:03:52;;;;;;;5.03;1.95;;;;;;;18.21;51.31;101039.22;4840552;29;20474;-50
2022/11/03 05:06:27;;;;;;;7.25;2.33;;;;;;;18.19;51.08;101038.53;4839621;29;20053;-51
2022/11/03 05:09:09;;;;;;;8.98;1.85;;;;;;;18.20;51.43;101045.59;4836796;29;20070;-50
2022/11/03 05:11:42;;;;;;;5.40;1.63;;;;;;;18.20;51.06;101037.53;4837866;29;20065;-51
2022/11/03 05:14:30;;;;;;;6.32;1.88;;;;;;;18.18;51.28;101026.97;4838039;29;20049;-52
2022/11/03 05:16:58;;;;;;;5.20;1.83;;;;;;;18.19;51.38;101025.97;4841020;29;20058;-52
2022/11/03 05:19:33;;;;;;;5.50;2.08;;;;;;;18.19;51.59;101025.13;4841256;29;20046;-52
2022/11/03 05:22:02;;;;;;;5.95;1.77;;;;;;;18.19;51.35;101025.97;4839131;29;20112;-50
2022/11/03 05:24:29;;;;;;;3.95;1.50;;;;;;;18.18;51.42;101024.28;4840950;29;20065;-51
2022/11/03 05:26:58;;;;;;;5.47;1.75;;;;;;;18.19;51.74;101020.59;4841139;29;20056;-49
2022/11/03 05:29:35;;;;;;;5.85;1.98;;;;;;;18.17;51.55;101009.19;4844785;29;20439;-52
2022/11/03 05:32:02;;;;;;;7.00;1.75;;;;;;;18.19;51.30;101003.66;4836260;29;20066;-51
2022/11/03 05:34:29;;;;;;;3.97;1.85;;;;;;;18.17;51.83;101006.50;4843031;29;20189;-53
2022/11/03 05:37:23;;;;;;;7.63;2.13;;;;;;;18.17;51.57;100994.91;4843989;29;20065;-50
2022/11/03 05:39:56;;;;;;;6.45;2.10;;;;;;;18.18;51.18;100992.09;4841223;29;20046;-51
2022/11/03 05:42:33;;;;;;;6.32;1.70;;;;;;;18.17;51.33;100998.47;4840118;29;20070;-50
2022/11/03 05:45:03;;;;;;;6.50;1.70;;;;;;;18.17;51.52;100986.88;4843010;29;20059;-50
2022/11/03 05:47:38;;;;;;;6.05;1.90;;;;;;;18.16;51.55;100983.34;4839328;29;20046;-51
2022/11/03 05:50:17;;;;;;;5.75;1.70;;;;;;;18.15;51.68;100984.34;4843300;29;20053;-50
2022/11/03 05:52:46;;;;;;;5.38;1.63;;;;;;;18.16;51.71;100980.66;4842357;29;20458;-50
2022/11/03 05:55:26;;;;;;;6.40;2.10;;;;;;;18.15;51.81;100978.97;4836374;29;20069;-53
2022/11/03 05:57:55;;;;;;;6.07;1.75;;;;;;;18.17;51.91;100971.66;4843791;29;20049;-53
2022/11/03 06:00:31;;;;;;;4.97;1.60;;;;;;;18.16;51.59;100971.78;4837971;29;20404;-52
2022/11/03 06:02:58;;;;;;;4.13;2.10;;;;;;;18.16;51.69;100971.78;4843841;29;20114;-49
2022/11/03 06:05:26;;;;;;;5.88;1.92;;;;;;;18.16;51.92;100967.25;4847919;29;20050;-50
2022/11/03 06:07:55;;;;;;;7.25;2.22;;;;;;;18.15;51.76;100957.53;4840692;29;20053;-53
2022/11/03 06:10:27;;;;;;;7.05;1.98;;;;;;;18.16;51.77;100961.03;4841751;29;20057;-52
2022/11/03 06:12:58;;;;;;;5.28;1.70;;;;;;;18.16;52.01;100956.53;4835758;29;20049;-52
2022/11/03 06:15:34;;;;;;;4.78;1.50;;;;;;;18.15;51.39;100946.78;4843728;29;20056;-50
2022/11/03 06:18:13;;;;;;;5.32;1.70;;;;;;;18.15;51.71;100952.16;4840972;29;20062;-49
2022/11/03 06:20:40;;;;;;;5.38;2.13;;;;;;;18.16;51.83;100950.31;4841701;29;20451;-52
2022/11/03 06:23:14;;;;;;;6.45;1.70;;;;;;;18.16;51.99;100942.25;4841474;29;20129;-50
2022/11/03 06:25:42;;;;;;;5.38;1.70;;;;;;;18.15;51.49;100938.75;4842332;29;20069;-49
2022/11/03 06:28:21;;;;;;;4.45;1.98;;;;;;;18.14;51.39;100942.44;4837762;29;20046;-52
2022/11/03 06:30:48;;;;;;;5.90;1.80;;;;;;;18.15;51.66;100944.09;4838583;29;20362;-52
2022/11/03 06:33:27;;;;;;;5.90;2.00;;;;;;;18.15;51.54;100938.75;4838865;29;20069;-50
2022/11/03 06:35:59;;;;;;;4.80;2.03;;;;;;;18.15;51.68;100935.22;4841454;29;20057;-51
2022/11/03 06:38:30;;;;;;;6.63;1.73;;;;;;;18.14;52.01;100929.00;4838445;29;20062;-52
2022/11/03 06:40:57;;;;;;;5.43;2.05;;;;;;;18.15;52.13;100938.75;4845366;29;20050;-53
2022/11/03 06:43:50;;;;;;;8.20;1.80;;;;;;;18.13;51.88;100919.28;4840394;29;20050;-52
2022/11/03 06:46:22;;;;;;;5.90;2.08;;;;;;;18.15;51.78;100921.81;4836294;29;20058;-52
2022/11/03 06:48:57;;;;;;;5.50;2.22;;;;;;;18.14;51.87;100920.97;4840225;29;20041;-49
2022/11/03 06:51:28;;;;;;;7.50;2.13;;;;;;;18.13;51.68;100913.94;4840854;29;20060;-51
2022/11/03 06:54:00;;;;;;;4.63;1.95;;;;;;;18.14;52.17;100909.41;4840563;29;20066;-48
2022/11/03 06:56:35;;;;;;;5.53;1.83;;;;;;;18.13;51.65;100911.25;4840644;29;20362;-51
2022/11/03 06:59:02;;;;;;;8.45;2.25;;;;;;;18.15;51.87;100916.44;4838644;29;20065;-52
2022/11/03 07:01:31;;;;;;;5.47;1.60;;;;;;;18.14;51.81;100920.97;4838834;29;20065;-52
2022/11/03 07:04:04;;;;;;;5.55;2.25;;;;;;;18.14;51.60;100915.59;4841836;29;20118;-49
2022/11/03 07:06:35;;;;;;;4.53;1.80;;;;;;;18.14;51.85;100920.97;4839610;29;20066;-51
2022/11/03 07:09:04;;;;;;;4.47;1.98;;;;;;;18.15;52.00;100921.81;4840871;29;20057;-53
2022/11/03 07:11:39;;;;;;;5.53;1.85;;;;;;;18.15;51.85;100921.81;4840593;29;20067;-50
2022/11/03 07:14:13;;;;;;;4.88;2.00;;;;;;;18.15;52.20;100929.84;4837845;29;20046;-49
2022/11/03 07:16:46;;;;;;;4.30;1.95;;;;;;;18.14;52.09;100923.66;4840158;29;20072;-53
2022/11/03 07:19:21;;;;;;;7.00;1.80;;;;;;;18.15;51.99;100913.75;4837456;29;20061;-50
2022/11/03 07:21:51;;;;;;;6.38;2.05;;;;;;;18.15;52.14;100919.13;4840836;29;20057;-49
2022/11/03 07:24:23;;;;;;;5.90;1.60;;;;;;;18.16;52.34;100916.28;4840445;29;20051;-52
2022/11/03 07:27:01;;;;;;;4.85;1.88;;;;;;;18.13;51.90;100908.56;4841500;29;20073;-50
2022/11/03 07:29:30;;;;;;;5.47;2.00;;;;;;;18.16;52.11;100905.53;4844012;29;20053;-50
2022/11/03 07:31:58;;;;;;;6.65;2.00;;;;;;;18.15;52.21;100909.25;4841399;29;20062;-50
2022/11/03 07:34:31;;;;;;;4.53;1.65;;;;;;;18.15;52.04;100898.50;4841459;29;20050;-50
2022/11/03 07:36:57;;;;;;;6.03;1.70;;;;;;;18.14;51.85;100904.88;4842278;29;20495;-51
2022/11/03 07:39:31;;;;;;;5.25;1.63;;;;;;;18.15;51.87;100909.25;4840166;29;20403;-51
2022/11/03 07:41:58;;;;;;;4.53;1.98;;;;;;;18.16;51.93;100910.91;4842323;29;20415;-50
2022/11/03 07:44:24;;;;;;;4.53;2.25;;;;;;;18.16;51.88;100910.06;4840895;29;20061;-49
2022/11/03 07:46:51;;;;;;;4.95;1.92;;;;;;;18.16;52.21;100907.38;4843490;29;20062;-52
2022/11/03 07:49:26;;;;;;;4.18;1.70;;;;;;;18.16;52.15;100910.06;4842504;29;20053;-49
2022/11/03 07:51:55;;;;;;;4.80;1.80;;;;;;;18.16;52.12;100908.22;4839316;29;20253;-51
2022/11/03 07:54:24;;;;;;;5.35;1.77;;;;;;;18.17;51.98;100903.72;4840691;29;20077;-50
2022/11/03 07:57:03;;;;;;;4.10;1.52;;;;;;;18.16;52.50;100892.13;4836811;29;20065;-51
2022/11/03 07:59:34;;;;;;;6.18;1.80;;;;;;;18.16;52.30;100892.13;4842432;29;20434;-52
2022/11/03 08:02:01;;;;;;;5.20;1.40;;;;;;;18.17;52.37;100888.47;4845632;29;20586;-52
2022/11/03 08:04:32;;;;;;;12.48;3.33;;;;;;;18.17;52.11;100893.84;4842102;29;20053;-52
2022/11/03 08:06:59;;;;;;;7.88;2.25;;;;;;;18.17;51.99;100888.47;4843943;29;20046;-52
2022/11/03 08:09:26;;;;;;;7.25;1.80;;;;;;;18.19;51.96;100893.69;4835643;29;20047;-50
2022/11/03 08:11:53;;;;;;;8.25;1.95;;;;;;;18.17;52.03;100885.78;4838630;29;20058;-49
2022/11/03 08:14:19;;;;;;;4.47;1.75;;;;;;;18.17;52.37;100883.13;4844385;29;20435;-52
2022/11/03 08:16:46;;;;;;;6.40;1.88;;;;;;;18.17;52.35;100877.75;4840289;29;20065;-52
2022/11/03 08:19:12;;;;;;;8.20;2.83;;;;;;;18.17;52.22;100871.50;4842494;29;20117;-49
2022/11/03 08:21:39;;;;;;;8.35;2.80;;;;;;;18.17;52.41;100869.69;4848634;29;20049;-51
2022/11/03 08:24:05;;;;;;;7.50;1.80;;;;;;;18.17;52.63;100860.78;4844996;29;20354;-50
2022/11/03 08:26:32;;;;;;;4.07;1.75;;;;;;;18.17;52.26;100858.09;4846225;29;20045;-50
2022/11/03 08:28:59;;;;;;;5.22;2.00;;;;;;;18.17;52.14;100853.59;4848151;29;20076;-51
2022/11/03 08:31:25;;;;;;;5.40;1.58;;;;;;;18.18;52.48;100841.88;4844535;29;20153;-52
2022/11/03 08:33:52;;;;;;;5.28;2.00;;;;;;;18.19;52.17;100837.34;4846742;29;20053;-50
2022/11/03 08:36:19;;;;;;;8.15;1.60;;;;;;;18.19;52.69;100835.50;4843122;29;20053;-51
2022/11/03 08:38:46;;;;;;;5.53;1.80;;;;;;;18.20;52.58;100820.25;4842985;29;20327;-52
2022/11/03 08:41:12;;;;;;;5.20;1.90;;;;;;;18.19;52.49;100822.09;4846314;29;20056;-50
2022/11/03 08:43:39;;;;;;;5.93;1.95;;;;;;;18.20;52.80;100823.75;4845046;29;20055;-50
2022/11/03 08:46:05;;;;;;;5.93;1.80;;;;;;;18.21;52.66;100814.75;4844244;29;20342;-52
2022/11/03 08:48:43;;;;;;;4.03;1.58;;;;;;;18.21;52.24;100808.50;4839812;29;20057;-50
2022/11/03 08:51:12;;;;;;;7.13;2.00;;;;;;;18.22;52.59;100802.16;4834708;29;20065;-52
2022/11/03 08:53:41;;;;;;;6.57;1.88;;;;;;;18.22;52.47;100800.31;4830284;29;20098;-53
2022/11/03 08:56:08;;;;;;;4.45;1.60;;;;;;;18.22;52.67;100803.00;4843228;29;20054;-53
2022/11/03 08:58:38;;;;;;;8.93;2.25;;;;;;;18.22;52.81;100784.22;4842527;29;20128;-50
2022/11/03 09:01:06;;;;;;;4.60;1.70;;;;;;;18.23;52.24;100782.38;4840115;29;20060;-54
2022/11/03 09:03:33;;;;;;;7.95;2.05;;;;;;;18.24;52.65;100778.69;4844370;29;20060;-53
2022/11/03 09:06:00;;;;;;;5.90;2.25;;;;;;;18.24;52.68;100768.78;4841461;29;20054;-54
2022/11/03 09:08:26;;;;;;;6.93;1.90;;;;;;;18.25;52.41;100762.47;4839694;29;20050;-49
2022/11/03 09:11:13;;;;;;;4.00;1.60;;;;;;;18.26;52.29;100755.25;4836137;29;20073;-53
2022/11/03 09:13:39;;;;;;;7.25;1.80;;;;;;;18.28;52.60;100755.06;4840408;29;20053;-53
2022/11/03 09:16:06;;;;;;;7.30;1.73;;;;;;;18.29;52.72;100751.38;4839886;29;20239;-52
2022/11/03 09:18:33;;;;;;;6.93;2.00;;;;;;;18.29;52.34;100740.66;4840069;29;20051;-52
2022/11/03 09:20:59;;;;;;;5.20;1.80;;;;;;;18.29;52.28;100727.25;4838269;29;20081;-53
2022/11/03 09:23:26;;;;;;;6.95;1.90;;;;;;;18.30;52.20;100720.91;4841611;29;20062;-54
2022/11/03 09:25:52;;;;;;;4.32;1.50;;;;;;;18.31;52.39;100715.34;4842724;29;20061;-54
2022/11/03 09:28:19;;;;;;;4.03;1.67;;;;;;;18.31;52.68;100710.00;4836481;29;20438;-53
2022/11/03 09:30:45;;;;;;;7.50;1.83;;;;;;;18.32;52.64;100709.00;4840573;29;20065;-50
2022/11/03 09:33:12;;;;;;;4.90;2.00;;;;;;;18.33;52.39;100707.13;4844674;29;20057;-51
2022/11/03 09:35:38;;;;;;;6.45;2.17;;;;;;;18.34;52.01;100692.75;4845251;29;20398;-54
2022/11/03 09:38:06;;;;;;;7.00;1.80;;;;;;;18.35;52.50;100699.78;4840834;29;20062;-53
2022/11/03 09:40:34;;;;;;;6.80;1.70;;;;;;;18.36;52.40;100688.03;4846889;29;20042;-53
2022/11/03 09:43:02;;;;;;;9.18;2.20;;;;;;;18.36;52.55;100677.31;4845352;29;20061;-51
2022/11/03 09:45:28;;;;;;;5.00;1.95;;;;;;;18.37;52.21;100673.63;4842187;29;20057;-53
2022/11/03 09:47:55;;;;;;;7.20;2.20;;;;;;;18.37;52.70;100665.56;4848852;29;20477;-50
2022/11/03 09:50:22;;;;;;;6.18;1.85;;;;;;;18.37;52.28;100663.75;4840418;29;20141;-51
2022/11/03 09:52:51;;;;;;;7.65;1.70;;;;;;;18.37;52.37;100662.88;4839175;29;20465;-53
2022/11/03 09:55:25;;;;;;;6.45;1.80;;;;;;;18.38;52.57;100661.91;4842347;29;21184;-52
2022/11/03 09:57:56;;;;;;;7.13;1.88;;;;;;;18.37;52.29;100653.03;4838860;29;20442;-54
2022/11/03 10:00:23;;;;;;;7.20;1.85;;;;;;;18.38;52.35;100659.22;4840190;29;20046;-51
2022/11/03 10:02:49;;;;;;;5.25;1.70;;;;;;;18.38;52.60;100653.88;4840112;29;20053;-53
2022/11/03 10:05:27;;;;;;;7.93;2.65;;;;;;;18.38;52.22;100649.34;4825678;29;20346;-50
2022/11/03 10:08:04;;;;;;;8.02;1.75;;;;;;;18.38;52.57;100653.88;4832134;29;20422;-50
2022/11/03 10:10:32;;;;;;;5.50;1.98;;;;;;;18.39;52.42;100650.16;4843120;29;20041;-52
2022/11/03 10:12:59;;;;;;;6.20;1.60;;;;;;;18.39;52.57;100644.81;4839484;29;20061;-51
2022/11/03 10:15:26;;;;;;;10.50;2.50;;;;;;;18.38;52.30;100641.28;4842272;29;20045;-53
2022/11/03 10:17:54;;;;;;;5.20;1.67;;;;;;;18.39;52.08;100626.84;4840461;29;20057;-51
2022/11/03 10:20:21;;;;;;;6.32;1.67;;;;;;;18.38;51.90;100621.66;4838502;29;20050;-50
2022/11/03 10:22:53;;;;;;;5.82;1.83;;;;;;;18.39;52.33;100620.66;4838778;29;20058;-51
2022/11/03 10:25:32;;;;;;;8.30;1.90;;;;;;;18.40;52.68;100615.13;4842912;29;20104;-53
2022/11/03 10:28:22;;;;;;;6.32;1.73;;;;;;;18.40;52.65;100611.59;4836314;29;20054;-51
2022/11/03 10:30:56;;;;;;;5.95;2.05;;;;;;;18.41;52.27;100605.22;4841788;29;20054;-53
2022/11/03 10:33:52;;;;;;;6.13;2.03;;;;;;;18.42;52.56;100606.91;4840760;29;20046;-52
2022/11/03 10:36:19;;;;;;;6.18;1.90;;;;;;;18.42;52.23;100588.97;4841396;29;20057;-50
2022/11/03 10:38:46;;;;;;;9.25;2.00;;;;;;;18.41;52.04;100584.63;4835159;29;20069;-51
2022/11/03 10:41:18;;;;;;;9.95;1.92;;;;;;;18.43;52.21;100584.44;4838400;29;20342;-53
2022/11/03 10:44:09;;;;;;;7.43;1.70;;;;;;;18.43;52.06;100579.06;4837076;29;20411;-50
2022/11/03 10:46:37;;;;;;;4.93;1.63;;;;;;;18.43;52.37;100581.75;4839615;29;20058;-53
2022/11/03 10:49:18;;;;;;;8.82;1.65;;;;;;;18.44;52.01;100573.53;4836387;29;20136;-50
2022/11/03 10:51:51;;;;;;;9.95;2.08;;;;;;;18.45;52.54;100560.94;4840493;29;20067;-52
2022/11/03 10:54:21;;;;;;;9.73;2.33;;;;;;;18.44;52.00;100554.75;4844398;29;20053;-50
2022/11/03 10:56:49;;;;;;;6.68;1.63;;;;;;;18.44;51.98;100554.75;4841796;29;20056;-49
2022/11/03 10:59:17;;;;;;;6.57;1.55;;;;;;;18.45;52.52;100545.72;4842568;29;20050;-51
2022/11/03 11:01:45;;;;;;;7.22;1.40;;;;;;;18.46;52.06;100549.25;4837087;29;20068;-53
2022/11/03 11:04:17;;;;;;;4.90;2.05;;;;;;;18.47;52.54;100532.13;4843288;29;20054;-51
2022/11/03 11:06:44;;;;;;;7.30;2.15;;;;;;;18.48;52.13;100531.09;4840040;29;20505;-50
2022/11/03 11:09:15;;;;;;;5.35;1.80;;;;;;;18.49;52.04;100527.41;4839665;29;20092;-52
2022/11/03 11:12:01;;;;;;;4.97;1.73;;;;;;;18.48;51.87;100521.22;4834901;29;20062;-52
2022/11/03 11:14:27;;;;;;;6.80;1.70;;;;;;;18.50;52.46;100521.06;4840043;29;20140;-51
2022/11/03 11:16:56;;;;;;;3.88;1.80;;;;;;;18.51;52.16;100525.41;4842203;29;20065;-52
2022/11/03 11:19:24;;;;;;;6.18;1.55;;;;;;;18.52;52.36;100527.09;4840919;29;20054;-50
2022/11/03 11:21:54;;;;;;;6.45;1.88;;;;;;;18.53;51.78;100520.72;4837131;29;20060;-53
2022/11/03 11:24:49;;;;;;;4.65;1.50;;;;;;;18.53;52.17;100515.34;4840683;29;20477;-50
2022/11/03 11:27:51;;;;;;;5.32;1.85;;;;;;;18.54;52.15;100514.38;4822762;29;20061;-52
2022/11/03 11:30:26;;;;;;;7.28;1.90;;;;;;;18.57;52.17;100507.81;4837261;29;20428;-54
2022/11/03 11:33:11;;;;;;;7.97;1.65;;;;;;;18.58;51.67;100504.13;4836117;29;20054;-51
2022/11/03 11:35:37;;;;;;;4.43;1.60;;;;;;;18.60;51.88;100502.13;4840671;29;20054;-54
2022/11/03 11:38:58;;;;;;;4.18;1.40;;;;;;;18.60;51.92;100486.00;4840744;29;20052;-51
2022/11/03 11:42:03;;;;;;;3.65;1.40;;;;;;;18.61;51.89;100477.78;4804173;29;20054;-52
2022/11/03 11:44:38;;;;;;;6.18;1.50;;;;;;;18.64;51.95;100482.81;4833104;29;20066;-51
2022/11/03 11:47:33;;;;;;;5.15;1.55;;;;;;;18.63;51.52;100469.56;4834134;29;20706;-51
2022/11/03 11:50:08;;;;;;;6.10;2.20;;;;;;;18.65;51.36;100465.72;4842895;29;20057;-51
2022/11/03 11:52:37;;;;;;;8.73;1.77;;;;;;;18.65;51.65;100460.38;4835516;29;20057;-53
2022/11/03 11:55:04;;;;;;;4.65;1.90;;;;;;;18.66;51.75;100445.09;4832882;29;20061;-52
2022/11/03 11:57:34;;;;;;;8.00;2.28;;;;;;;18.66;51.92;100445.94;4838918;29;20050;-52